Flushing, Ohio
Current Conditions -  °F | °C
As of 3:04 PM on Sunday 21 Dec 2014 (Local Time) from KHLG Reporting Station
Broken Clouds Broken Clouds  
Wind Chill: 27°   Ceiling: 2800
Heat Index: 34°   Visibility: 10mi
Dew Point: 22°   Wind: 8mph
Humidity: 61%   Direction: 40°NE
Pressure: 30.22"   Gusts: NA
Location:  40.15°N, 81.07°W
Report Text: KHLG 212004Z 04007KT 10SM BKN028 01/M06 A3022 RMK AO2 T00111056
Loading
Personal Weather Stations






























Interactive Weather Map New forecast layout! Learn more

10-Day Weather Forecast

Advertisements
Track Severe Weather on mobile